Time;durP1;ratioP1;P1;durP2;ratioP2;P2;SDS_P1;SDS_P2;PMS_P1;PMS_P2;Temp;Humidity;BMP_temperature;BMP_pressure;BME280_temperature;BME280_humidity;BME280_pressure;Samples;Min_cycle;Max_cycle;Signal;HPM_P1;HPM_P2
2022/09/14 00:01:34;;;;;;;2.15;0.63;;;18.40;79.30;;;;;;5040409;28;20029;-58
2022/09/14 00:04:04;;;;;;;2.78;1.67;;;18.30;79.30;;;;;;5051869;28;20447;-57
2022/09/14 00:06:30;;;;;;;3.83;0.80;;;18.30;79.40;;;;;;5035956;28;20033;-59
2022/09/14 00:08:57;;;;;;;3.25;0.50;;;18.20;79.50;;;;;;5041354;28;20509;-57
2022/09/14 00:11:25;;;;;;;2.72;0.60;;;18.20;79.50;;;;;;5044134;28;20465;-58
2022/09/14 00:13:51;;;;;;;3.65;0.50;;;18.20;79.60;;;;;;5038648;28;20030;-58
2022/09/14 00:16:25;;;;;;;1.40;0.45;;;18.20;79.60;;;;;;5052614;28;20025;-58
2022/09/14 00:18:59;;;;;;;2.38;0.60;;;18.20;79.60;;;;;;5043003;28;20902;-58
2022/09/14 00:21:41;;;;;;;2.58;0.70;;;18.20;79.60;;;;;;5053643;28;20031;-58
2022/09/14 00:24:13;;;;;;;1.27;0.50;;;18.20;79.50;;;;;;5039965;28;20029;-58
2022/09/14 00:26:41;;;;;;;2.83;0.73;;;18.20;79.60;;;;;;5035979;28;20496;-58
2022/09/14 00:29:07;;;;;;;2.85;0.47;;;18.20;79.60;;;;;;5038473;28;20083;-58
2022/09/14 00:31:35;;;;;;;3.83;0.55;;;18.20;79.70;;;;;;5042490;28;20025;-58
2022/09/14 00:34:01;;;;;;;2.97;0.50;;;18.20;79.70;;;;;;5045742;28;20045;-58
2022/09/14 00:36:28;;;;;;;1.70;0.77;;;18.10;79.70;;;;;;5053907;28;20029;-58
2022/09/14 00:38:55;;;;;;;1.90;0.60;;;18.10;79.80;;;;;;5040042;28;20028;-58
2022/09/14 00:41:31;;;;;;;2.83;0.50;;;18.10;80.10;;;;;;5043868;28;20048;-58
2022/09/14 00:44:00;;;;;;;2.42;0.90;;;18.10;80.10;;;;;;5043646;28;20048;-58
2022/09/14 00:46:30;;;;;;;3.10;0.55;;;18.00;80.30;;;;;;5039653;28;20048;-58
2022/09/14 00:48:59;;;;;;;3.88;0.65;;;18.00;80.40;;;;;;5042600;28;20029;-58
2022/09/14 00:51:25;;;;;;;3.25;0.50;;;18.00;80.40;;;;;;5038353;28;20335;-58
2022/09/14 00:53:51;;;;;;;4.32;0.50;;;18.00;80.50;;;;;;5034174;28;20493;-58
2022/09/14 00:56:17;;;;;;;3.80;0.50;;;18.00;80.60;;;;;;5042184;28;20033;-58
2022/09/14 00:58:46;;;;;;;3.35;0.57;;;18.00;80.60;;;;;;5046727;28;20025;-58
2022/09/14 01:01:17;;;;;;;5.82;0.73;;;18.00;80.60;;;;;;5034640;28;20116;-58
2022/09/14 01:03:43;;;;;;;2.60;0.65;;;18.00;80.60;;;;;;5044868;28;20028;-58
2022/09/14 01:07:01;;;;;;;2.10;0.30;;;18.00;80.60;;;;;;5041247;28;20037;-58
2022/09/14 01:09:48;;;;;;;3.35;0.50;;;18.10;80.50;;;;;;5030491;28;20035;-58
2022/09/14 01:12:28;;;;;;;1.45;0.47;;;17.90;80.60;;;;;;5038537;28;20097;-58
2022/09/14 01:15:01;;;;;;;3.25;0.40;;;18.00;80.60;;;;;;5043196;28;20025;-58
2022/09/14 01:17:57;;;;;;;3.20;0.50;;;18.00;80.70;;;;;;5037271;28;20482;-58
2022/09/14 01:20:50;;;;;;;1.75;0.50;;;18.00;80.70;;;;;;5061437;28;20025;-58
2022/09/14 01:24:00;;;;;;;3.13;0.60;;;18.00;80.80;;;;;;5032397;28;20025;-58
2022/09/14 01:26:52;;;;;;;2.30;0.40;;;17.90;81.00;;;;;;5059312;28;20485;-58
2022/09/14 01:29:31;;;;;;;4.03;0.50;;;17.90;81.30;;;;;;5043937;28;20017;-58
2022/09/14 01:32:31;;;;;;;1.83;0.40;;;17.90;81.50;;;;;;5048996;28;20017;-58
2022/09/14 01:35:06;;;;;;;3.40;0.40;;;17.90;81.40;;;;;;5048929;28;20044;-58
2022/09/14 01:37:50;;;;;;;3.55;0.57;;;17.90;81.80;;;;;;5042354;28;20025;-58
2022/09/14 01:40:40;;;;;;;2.70;0.50;;;17.90;81.90;;;;;;5045613;28;20041;-58
2022/09/14 01:43:09;;;;;;;;;;;17.80;81.90;;;;;;5039326;28;20106;-58
2022/09/14 01:45:58;;;;;;;3.28;0.40;;;17.80;82.00;;;;;;5038670;28;19909;-58
2022/09/14 01:48:32;;;;;;;2.50;1.03;;;17.70;82.10;;;;;;5056494;28;20025;-58
2022/09/14 01:51:02;;;;;;;3.25;0.60;;;17.70;82.30;;;;;;5048513;28;20025;-58
2022/09/14 01:53:38;;;;;;;3.25;0.60;;;17.70;82.40;;;;;;5041545;28;20032;-58
2022/09/14 01:56:07;;;;;;;4.63;0.40;;;17.70;82.50;;;;;;5044868;28;20033;-57
2022/09/14 01:58:45;;;;;;;1.80;0.40;;;17.70;82.70;;;;;;5043166;28;20021;-58
2022/09/14 02:01:18;;;;;;;4.57;0.90;;;17.70;82.70;;;;;;5045540;28;20033;-58
2022/09/14 02:03:48;;;;;;;3.47;0.50;;;17.70;83.00;;;;;;5038658;28;20056;-58
2022/09/14 02:06:23;;;;;;;2.20;0.45;;;17.70;83.00;;;;;;5049270;28;20065;-58
2022/09/14 02:08:52;;;;;;;2.78;0.50;;;17.70;83.20;;;;;;5044390;28;20025;-58
2022/09/14 02:11:18;;;;;;;2.92;0.47;;;17.60;83.40;;;;;;5047116;28;20166;-57
2022/09/14 02:13:46;;;;;;;5.88;0.77;;;17.60;83.70;;;;;;5043742;28;20037;-58
2022/09/14 02:16:12;;;;;;;3.28;0.57;;;17.60;84.00;;;;;;5048100;28;20079;-57
2022/09/14 02:18:38;;;;;;;1.85;0.40;;;17.60;84.30;;;;;;5042431;28;20021;-58
2022/09/14 02:21:13;;;;;;;2.53;0.60;;;17.60;84.50;;;;;;5049208;28;20451;-58
2022/09/14 02:23:39;;;;;;;1.55;0.40;;;17.60;84.80;;;;;;5040783;28;20481;-57
2022/09/14 02:26:05;;;;;;;3.38;0.40;;;17.60;85.20;;;;;;5043796;28;20030;-57
2022/09/14 02:28:30;;;;;;;2.95;0.50;;;17.50;85.50;;;;;;5045801;28;20025;-57
2022/09/14 02:31:22;;;;;;;2.08;0.63;;;17.50;86.10;;;;;;5042141;28;20445;-57
2022/09/14 02:33:55;;;;;;;3.70;0.52;;;17.50;86.60;;;;;;5045387;28;20028;-57
2022/09/14 02:36:51;;;;;;;3.25;0.40;;;17.40;87.70;;;;;;5043518;28;20020;-58
2022/09/14 02:39:25;;;;;;;2.40;0.60;;;17.40;87.30;;;;;;5041595;28;20037;-57
2022/09/14 02:42:48;;;;;;;1.20;0.50;;;17.40;87.80;;;;;;5047431;28;20036;-57
2022/09/14 02:45:42;;;;;;;6.10;0.93;;;17.40;88.10;;;;;;4985224;28;20371;-57
2022/09/14 02:48:56;;;;;;;6.63;0.90;;;17.20;89.00;;;;;;5040597;28;20026;-56
2022/09/14 02:51:31;;;;;;;4.97;1.20;;;17.20;89.80;;;;;;5036842;28;20080;-58
2022/09/14 02:54:15;;;;;;;3.35;0.68;;;17.10;90.10;;;;;;5035450;28;20025;-58
2022/09/14 02:56:40;;;;;;;4.40;0.60;;;17.00;90.20;;;;;;5043375;28;20037;-57
2022/09/14 02:59:06;;;;;;;3.50;0.68;;;17.00;90.30;;;;;;5056115;28;20078;-58
2022/09/14 03:01:31;;;;;;;2.35;0.57;;;17.00;90.30;;;;;;5038941;28;20543;-57
2022/09/14 03:04:13;;;;;;;2.00;0.80;;;17.00;90.40;;;;;;5037193;28;20485;-58
2022/09/14 03:06:38;;;;;;;2.75;0.52;;;17.00;90.60;;;;;;5038627;28;20099;-57
2022/09/14 03:09:04;;;;;;;1.98;0.55;;;16.90;90.80;;;;;;5046406;28;20017;-57
2022/09/14 03:11:30;;;;;;;2.80;0.52;;;16.90;91.00;;;;;;5046881;28;20025;-58
2022/09/14 03:13:55;;;;;;;2.60;0.50;;;16.90;91.10;;;;;;5041703;28;20374;-58
2022/09/14 03:16:21;;;;;;;5.43;0.60;;;16.80;91.20;;;;;;5039264;28;20420;-58
2022/09/14 03:18:46;;;;;;;5.13;0.80;;;16.80;91.60;;;;;;5046817;28;20060;-57
2022/09/14 03:21:14;;;;;;;3.80;0.80;;;16.70;91.60;;;;;;5041218;28;20029;-57
2022/09/14 03:23:59;;;;;;;2.58;0.50;;;16.60;91.90;;;;;;5040765;28;20568;-57
2022/09/14 03:26:27;;;;;;;1.58;0.47;;;16.60;92.00;;;;;;5036022;28;20025;-58
2022/09/14 03:28:58;;;;;;;1.75;0.40;;;16.60;92.20;;;;;;5044573;28;20025;-58
2022/09/14 03:31:24;;;;;;;1.95;0.40;;;16.60;92.20;;;;;;5040665;28;20017;-58
2022/09/14 03:33:55;;;;;;;2.35;0.40;;;16.50;92.30;;;;;;5036773;28;20026;-59
2022/09/14 03:36:27;;;;;;;2.90;0.40;;;16.60;92.30;;;;;;5041345;28;20092;-57
2022/09/14 03:39:06;;;;;;;2.45;0.47;;;16.60;92.30;;;;;;5046545;28;20123;-57
2022/09/14 03:41:32;;;;;;;2.35;0.40;;;16.60;92.40;;;;;;5041168;28;20048;-57
2022/09/14 03:44:14;;;;;;;1.42;0.32;;;16.60;92.50;;;;;;5038210;28;20029;-58
2022/09/14 03:46:43;;;;;;;2.83;0.43;;;16.60;92.60;;;;;;5044876;28;20094;-57
2022/09/14 03:49:08;;;;;;;2.78;0.35;;;16.60;92.70;;;;;;5036186;28;20078;-57
2022/09/14 03:51:34;;;;;;;2.92;1.15;;;16.60;92.80;;;;;;5046598;28;20017;-58
2022/09/14 03:53:59;;;;;;;2.33;0.43;;;16.60;92.90;;;;;;5036396;28;20112;-58
2022/09/14 03:56:25;;;;;;;3.20;0.40;;;16.50;93.00;;;;;;5044187;28;20025;-57
2022/09/14 03:58:51;;;;;;;0.90;0.40;;;16.50;93.10;;;;;;5042680;28;20480;-57
2022/09/14 04:01:19;;;;;;;1.92;0.40;;;16.60;93.20;;;;;;5039794;28;20025;-58
2022/09/14 04:03:45;;;;;;;3.17;0.50;;;16.60;93.20;;;;;;5031769;28;20025;-58
2022/09/14 04:06:11;;;;;;;2.17;0.40;;;16.50;93.20;;;;;;5046353;28;20032;-57
2022/09/14 04:08:38;;;;;;;2.05;0.40;;;16.50;93.20;;;;;;5037207;28;20021;-57
2022/09/14 04:11:18;;;;;;;3.03;0.40;;;16.50;93.30;;;;;;5041620;28;20029;-58
2022/09/14 04:13:44;;;;;;;1.88;0.30;;;16.60;93.30;;;;;;5041341;28;20489;-57
2022/09/14 04:16:10;;;;;;;1.25;0.30;;;16.60;93.40;;;;;;5029120;28;20069;-57
2022/09/14 04:18:36;;;;;;;1.88;0.40;;;16.60;93.50;;;;;;5036920;28;20129;-58
2022/09/14 04:21:05;;;;;;;1.63;0.30;;;16.50;93.50;;;;;;5036705;28;20460;-57
2022/09/14 04:23:31;;;;;;;0.77;0.38;;;16.50;93.60;;;;;;5045953;28;20492;-57
2022/09/14 04:25:56;;;;;;;1.73;0.30;;;16.40;94.00;;;;;;5044201;28;20032;-57
2022/09/14 04:28:23;;;;;;;1.38;0.40;;;16.50;93.90;;;;;;5042614;28;20041;-57
2022/09/14 04:30:59;;;;;;;2.67;0.40;;;16.40;93.90;;;;;;5041189;28;20534;-58
2022/09/14 04:33:28;;;;;;;3.10;0.43;;;16.50;94.00;;;;;;5031137;28;20029;-57
2022/09/14 04:36:05;;;;;;;1.20;0.50;;;16.40;94.10;;;;;;5043698;28;20400;-57
2022/09/14 04:38:32;;;;;;;1.30;0.30;;;16.40;94.20;;;;;;5048647;28;20052;-57
2022/09/14 04:40:58;;;;;;;1.88;0.40;;;16.40;94.30;;;;;;5047801;28;20524;-57
2022/09/14 04:43:25;;;;;;;6.55;0.57;;;16.40;94.40;;;;;;5037711;28;20103;-57
2022/09/14 04:46:06;;;;;;;2.15;0.85;;;16.40;94.40;;;;;;5042359;28;20021;-57
2022/09/14 04:48:33;;;;;;;3.13;0.60;;;16.40;94.60;;;;;;5043307;28;20030;-57
2022/09/14 04:51:03;;;;;;;1.80;0.60;;;16.10;95.20;;;;;;5034044;28;20018;-58
2022/09/14 04:53:33;;;;;;;1.42;0.50;;;16.00;95.70;;;;;;5045379;28;20385;-59
2022/09/14 04:56:15;;;;;;;2.65;0.60;;;16.10;95.90;;;;;;5038373;28;20049;-58
2022/09/14 04:58:49;;;;;;;1.85;0.57;;;16.10;96.00;;;;;;5043106;28;20053;-58
2022/09/14 05:01:18;;;;;;;2.50;0.70;;;16.10;96.30;;;;;;5043626;28;20107;-58
2022/09/14 05:03:44;;;;;;;1.05;0.40;;;16.20;96.00;;;;;;5043226;28;20026;-58
2022/09/14 05:06:16;;;;;;;1.25;0.40;;;16.20;96.00;;;;;;5050985;28;20028;-58
2022/09/14 05:08:43;;;;;;;2.33;0.60;;;16.20;96.00;;;;;;5055404;28;20009;-57
2022/09/14 05:11:12;;;;;;;1.30;0.40;;;16.20;96.00;;;;;;5055045;28;20108;-58
2022/09/14 05:13:38;;;;;;;;;;;16.30;96.00;;;;;;5056122;28;20021;-58
2022/09/14 05:16:14;;;;;;;1.33;0.50;;;16.20;96.00;;;;;;5055273;28;19905;-57
2022/09/14 05:18:40;;;;;;;2.50;0.50;;;16.20;96.20;;;;;;5055502;28;20063;-57
2022/09/14 05:21:08;;;;;;;1.52;0.60;;;16.20;96.20;;;;;;5056439;28;20061;-58
2022/09/14 05:23:34;;;;;;;2.53;0.40;;;16.20;96.30;;;;;;5055277;28;20507;-58
2022/09/14 05:26:00;;;;;;;1.95;0.60;;;16.20;96.40;;;;;;5054590;28;20032;-58
2022/09/14 05:28:26;;;;;;;1.80;0.40;;;16.10;96.50;;;;;;5054172;28;20025;-56
2022/09/14 05:31:02;;;;;;;1.02;0.40;;;16.10;96.50;;;;;;5054946;28;20017;-57
2022/09/14 05:33:27;;;;;;;1.35;0.55;;;16.10;96.50;;;;;;5053546;28;20043;-58
2022/09/14 05:36:00;;;;;;;2.60;0.40;;;16.20;96.60;;;;;;5052727;28;20476;-58
2022/09/14 05:38:33;;;;;;;1.75;0.57;;;16.20;96.60;;;;;;5044433;28;20056;-57
2022/09/14 05:41:02;;;;;;;1.65;0.50;;;16.20;96.70;;;;;;5054837;28;20063;-57
2022/09/14 05:43:28;;;;;;;1.67;0.40;;;16.20;96.70;;;;;;5052698;28;20035;-57
2022/09/14 05:45:54;;;;;;;1.70;0.60;;;16.10;96.70;;;;;;5054199;28;20032;-59
2022/09/14 05:48:19;;;;;;;3.45;0.65;;;16.10;96.90;;;;;;5055020;28;20024;-58
2022/09/14 05:50:45;;;;;;;2.40;0.70;;;16.10;96.90;;;;;;5050515;28;20021;-58
2022/09/14 05:53:11;;;;;;;2.90;0.60;;;16.10;97.00;;;;;;5053277;28;20044;-57
2022/09/14 05:55:36;;;;;;;3.05;0.77;;;16.10;97.00;;;;;;5051529;28;20400;-58
2022/09/14 05:58:04;;;;;;;1.25;0.60;;;16.10;97.10;;;;;;5045138;28;20443;-58
2022/09/14 06:00:41;;;;;;;3.67;0.80;;;16.20;97.10;;;;;;5039658;28;20098;-58
2022/09/14 06:03:06;;;;;;;3.22;0.57;;;16.20;97.10;;;;;;5052169;28;20024;-58
2022/09/14 06:05:34;;;;;;;2.00;0.60;;;16.10;97.10;;;;;;5054719;28;20465;-58
2022/09/14 06:08:00;;;;;;;3.22;0.70;;;16.20;97.50;;;;;;5048402;28;20437;-58
2022/09/14 06:10:25;;;;;;;2.45;0.65;;;16.20;97.30;;;;;;5065941;28;20056;-58
2022/09/14 06:12:53;;;;;;;3.13;0.60;;;16.20;97.40;;;;;;5052711;28;20103;-58
2022/09/14 06:15:19;;;;;;;2.67;0.77;;;16.20;97.40;;;;;;5044821;28;20021;-58
2022/09/14 06:17:45;;;;;;;2.03;0.77;;;16.20;97.40;;;;;;5053096;28;20366;-58
2022/09/14 06:20:25;;;;;;;1.70;0.90;;;16.20;97.40;;;;;;5046338;28;20307;-58
2022/09/14 06:22:52;;;;;;;2.97;0.70;;;16.20;97.40;;;;;;5048445;28;20033;-57
2022/09/14 06:25:19;;;;;;;1.90;0.80;;;16.20;97.50;;;;;;5050366;28;20022;-58
2022/09/14 06:27:45;;;;;;;2.80;0.73;;;16.20;97.50;;;;;;5048431;28;20056;-57
2022/09/14 06:30:11;;;;;;;2.95;1.20;;;16.20;97.60;;;;;;5049269;28;20051;-58
2022/09/14 06:32:37;;;;;;;2.05;0.88;;;16.20;97.60;;;;;;5049103;28;20036;-58
2022/09/14 06:35:03;;;;;;;2.40;0.88;;;16.20;97.60;;;;;;5048624;28;20021;-56
2022/09/14 06:37:28;;;;;;;5.93;0.80;;;16.30;97.70;;;;;;5040903;28;20025;-58
2022/09/14 06:39:54;;;;;;;3.42;0.93;;;16.30;97.70;;;;;;5045750;28;20492;-58
2022/09/14 06:42:20;;;;;;;4.50;0.93;;;16.30;97.70;;;;;;5035167;28;20444;-58
2022/09/14 06:44:46;;;;;;;2.60;0.98;;;16.30;98.10;;;;;;5047928;28;20476;-58
2022/09/14 06:47:12;;;;;;;3.80;1.00;;;16.30;97.90;;;;;;5065370;28;20360;-58
2022/09/14 06:49:37;;;;;;;3.50;1.10;;;16.30;97.90;;;;;;5052092;28;20013;-58
2022/09/14 06:52:03;;;;;;;3.25;1.35;;;16.20;98.00;;;;;;5042521;28;20028;-57
2022/09/14 06:54:28;;;;;;;2.83;1.02;;;16.20;98.10;;;;;;5047682;28;20028;-57
2022/09/14 06:57:08;;;;;;;2.92;0.82;;;16.20;98.20;;;;;;5047900;28;20017;-58
2022/09/14 06:59:33;;;;;;;3.55;1.40;;;16.30;98.30;;;;;;5047170;28;20393;-57
2022/09/14 07:01:59;;;;;;;4.00;0.98;;;16.20;98.30;;;;;;5050588;28;20029;-57
2022/09/14 07:04:24;;;;;;;4.93;1.40;;;16.20;98.40;;;;;;5048007;28;20029;-58
2022/09/14 07:06:50;;;;;;;4.00;1.15;;;16.20;98.50;;;;;;5051593;28;20029;-57
2022/09/14 07:09:17;;;;;;;3.65;1.10;;;16.20;98.50;;;;;;5047486;28;20108;-58
2022/09/14 07:11:43;;;;;;;4.65;0.90;;;16.20;98.50;;;;;;5053479;28;20385;-57
2022/09/14 07:14:10;;;;;;;3.95;1.10;;;16.30;98.50;;;;;;5053201;28;20079;-57
2022/09/14 07:16:37;;;;;;;3.72;1.13;;;16.30;98.50;;;;;;5052060;28;20037;-58
2022/09/14 07:19:05;;;;;;;5.22;1.00;;;16.40;98.50;;;;;;5051589;28;20033;-57
2022/09/14 07:21:34;;;;;;;4.03;1.45;;;16.40;98.40;;;;;;5049358;28;20090;-57
2022/09/14 07:24:00;;;;;;;3.00;0.82;;;16.50;98.40;;;;;;5045238;28;20029;-57
2022/09/14 07:26:38;;;;;;;2.83;1.00;;;16.50;98.40;;;;;;5051570;28;20428;-57
2022/09/14 07:29:06;;;;;;;3.03;0.80;;;16.50;98.40;;;;;;5039947;28;20476;-58
2022/09/14 07:31:43;;;;;;;6.57;1.40;;;16.40;98.40;;;;;;5050109;28;20116;-57
2022/09/14 07:34:10;;;;;;;2.83;1.13;;;16.40;98.40;;;;;;5047335;28;20029;-58
2022/09/14 07:36:36;;;;;;;2.90;1.10;;;16.40;98.50;;;;;;5046942;28;20033;-58
2022/09/14 07:39:05;;;;;;;2.72;1.00;;;16.40;98.60;;;;;;5046050;28;20028;-58
2022/09/14 07:41:32;;;;;;;4.30;1.38;;;16.40;98.60;;;;;;5048428;28;20509;-57
2022/09/14 07:43:59;;;;;;;6.40;1.67;;;16.40;98.70;;;;;;5050896;28;20134;-57
2022/09/14 07:46:27;;;;;;;2.97;0.85;;;16.40;98.70;;;;;;5043707;28;20069;-58
2022/09/14 07:48:57;;;;;;;3.60;0.93;;;16.40;98.70;;;;;;5041845;28;20027;-57
2022/09/14 07:51:24;;;;;;;2.15;0.90;;;16.40;98.70;;;;;;5067128;28;20021;-58
2022/09/14 07:53:50;;;;;;;3.38;1.20;;;16.40;98.70;;;;;;5037407;28;20048;-58
2022/09/14 07:56:16;;;;;;;4.88;1.10;;;16.40;98.70;;;;;;5055181;28;20115;-57
2022/09/14 07:58:42;;;;;;;2.75;1.00;;;16.40;98.70;;;;;;5045552;28;20108;-58
2022/09/14 08:01:14;;;;;;;3.55;1.45;;;16.40;98.70;;;;;;5041433;28;20040;-58
2022/09/14 08:03:42;;;;;;;4.38;1.70;;;16.40;98.70;;;;;;5042957;28;20091;-57
2022/09/14 08:06:17;;;;;;;3.75;0.98;;;16.40;98.70;;;;;;5045831;28;20025;-58
2022/09/14 08:08:44;;;;;;;2.42;1.02;;;16.40;98.80;;;;;;5054131;28;20025;-58
2022/09/14 08:11:14;;;;;;;1.90;0.82;;;16.30;98.80;;;;;;5051516;28;20485;-57
2022/09/14 08:13:41;;;;;;;;;;;16.30;98.80;;;;;;5048390;28;20026;-58
2022/09/14 08:16:07;;;;;;;2.95;0.85;;;16.30;98.80;;;;;;5053238;28;19904;-57
2022/09/14 08:18:35;;;;;;;4.22;1.30;;;16.20;99.00;;;;;;5050913;28;20048;-57
2022/09/14 08:21:05;;;;;;;1.98;1.10;;;16.30;98.90;;;;;;5051888;28;20523;-58
2022/09/14 08:23:32;;;;;;;3.45;1.08;;;16.30;98.90;;;;;;5048405;28;20082;-58
2022/09/14 08:26:30;;;;;;;3.85;1.13;;;16.30;99.20;;;;;;5052397;28;20499;-57
2022/09/14 08:29:00;;;;;;;2.23;1.10;;;16.40;98.90;;;;;;5042450;28;20029;-58
2022/09/14 08:31:26;;;;;;;2.17;1.05;;;16.40;98.90;;;;;;5057540;28;20055;-57
2022/09/14 08:33:55;;;;;;;4.35;1.17;;;16.40;98.90;;;;;;5050139;28;20049;-54
2022/09/14 08:36:22;;;;;;;3.53;1.20;;;16.40;98.90;;;;;;5056250;28;20071;-57
2022/09/14 08:38:47;;;;;;;2.05;1.20;;;16.40;98.90;;;;;;5053989;28;20023;-56
2022/09/14 08:41:27;;;;;;;3.60;1.08;;;16.40;98.90;;;;;;5057946;28;20040;-57
2022/09/14 08:43:54;;;;;;;2.08;0.88;;;16.50;98.90;;;;;;5060553;28;20074;-58
2022/09/14 08:46:36;;;;;;;5.07;1.20;;;16.50;98.90;;;;;;5061273;28;20473;-58
2022/09/14 08:49:09;;;;;;;3.00;1.00;;;16.60;98.90;;;;;;5054937;28;20025;-59
2022/09/14 08:51:35;;;;;;;4.68;1.13;;;16.60;98.90;;;;;;5047561;28;20028;-57
2022/09/14 08:54:03;;;;;;;4.25;1.33;;;16.60;98.90;;;;;;5058461;28;20098;-58
2022/09/14 08:56:40;;;;;;;2.33;1.00;;;16.60;98.90;;;;;;5055327;28;20056;-58
2022/09/14 08:59:39;;;;;;;4.03;1.30;;;16.60;98.90;;;;;;5051219;28;20028;-58
2022/09/14 09:02:14;;;;;;;;;;;16.70;98.90;;;;;;5053521;28;20477;-57
2022/09/14 09:04:58;;;;;;;2.10;0.98;;;16.60;98.90;;;;;;5051392;28;19913;-57
2022/09/14 09:07:33;;;;;;;3.67;1.02;;;16.60;99.00;;;;;;5055098;28;20096;-58
2022/09/14 09:10:00;;;;;;;3.78;1.42;;;16.60;99.10;;;;;;5051968;28;20022;-57
2022/09/14 09:12:40;;;;;;;3.13;1.25;;;16.70;99.10;;;;;;5049022;28;20044;-58
2022/09/14 09:15:47;;;;;;;5.00;2.38;;;16.70;99.00;;;;;;5050616;28;20494;-57
2022/09/14 09:18:34;;;;;;;3.10;1.90;;;16.70;99.20;;;;;;5050058;28;20037;-58
2022/09/14 09:21:08;;;;;;;3.35;1.48;;;16.70;99.40;;;;;;5050398;28;20021;-57
2022/09/14 09:23:34;;;;;;;4.00;1.02;;;16.70;99.40;;;;;;5052623;28;20037;-58
2022/09/14 09:26:03;;;;;;;3.15;1.38;;;16.70;99.40;;;;;;5054131;28;20036;-57
2022/09/14 09:28:29;;;;;;;3.08;1.83;;;16.70;99.30;;;;;;5056429;28;20115;-57
2022/09/14 09:30:58;;;;;;;3.28;1.73;;;16.80;99.40;;;;;;5055697;28;20017;-57
2022/09/14 09:33:26;;;;;;;3.63;1.88;;;16.80;99.50;;;;;;5055099;28;20029;-57
2022/09/14 09:35:53;;;;;;;2.38;1.52;;;16.80;99.50;;;;;;5055596;28;20032;-57
2022/09/14 09:38:23;;;;;;;4.18;1.23;;;16.80;99.50;;;;;;5051991;28;20033;-56
2022/09/14 09:41:18;;;;;;;9.90;2.22;;;16.80;99.50;;;;;;5055343;28;20493;-57
2022/09/14 09:44:05;;;;;;;2.42;1.52;;;16.80;99.50;;;;;;5067717;28;20120;-57
2022/09/14 09:46:50;;;;;;;4.47;1.10;;;16.70;99.70;;;;;;5071021;28;20032;-57
2022/09/14 09:49:24;;;;;;;6.03;1.73;;;16.70;99.90;;;;;;5050638;28;20032;-57
2022/09/14 09:51:52;;;;;;;3.15;0.90;;;16.70;99.80;;;;;;5056575;28;20024;-57
2022/09/14 09:54:30;;;;;;;2.22;0.70;;;16.70;99.80;;;;;;5067357;28;20025;-57
2022/09/14 09:56:58;;;;;;;2.47;0.70;;;16.80;99.70;;;;;;5056023;28;20117;-58
2022/09/14 09:59:37;;;;;;;1.98;0.70;;;16.80;99.70;;;;;;5053465;28;20021;-55
2022/09/14 10:02:22;;;;;;;3.83;1.08;;;16.90;99.50;;;;;;5050748;28;20029;-57
2022/09/14 10:05:00;;;;;;;5.93;1.17;;;16.90;99.40;;;;;;5050348;28;20036;-57
2022/09/14 10:07:28;;;;;;;3.05;1.25;;;16.70;99.50;;;;;;5047651;28;20359;-56
2022/09/14 10:10:00;;;;;;;3.30;0.70;;;16.50;99.50;;;;;;5056714;28;20024;-57
2022/09/14 10:12:26;;;;;;;3.85;0.80;;;16.50;99.70;;;;;;5055784;28;20022;-56
2022/09/14 10:15:15;;;;;;;5.50;0.77;;;16.50;99.80;;;;;;5056320;28;20500;-58
2022/09/14 10:17:53;;;;;;;;;;;16.60;99.90;;;;;;5057068;28;20127;-56
2022/09/14 10:20:21;;;;;;;1.17;0.52;;;16.60;99.80;;;;;;5046235;28;19905;-57
2022/09/14 10:22:47;;;;;;;1.13;0.50;;;16.70;99.80;;;;;;5049610;28;20047;-57
2022/09/14 10:25:13;;;;;;;1.02;0.43;;;16.80;99.50;;;;;;5047196;28;20025;-57
2022/09/14 10:27:44;;;;;;;2.97;0.93;;;16.80;99.50;;;;;;5052263;28;20026;-57
2022/09/14 10:30:36;;;;;;;2.28;1.00;;;16.90;99.40;;;;;;5061596;28;20396;-56
2022/09/14 10:33:05;;;;;;;2.38;0.50;;;17.00;99.40;;;;;;5045822;28;20041;-57
2022/09/14 10:35:39;;;;;;;2.03;0.50;;;17.00;99.40;;;;;;5048288;28;20108;-57
2022/09/14 10:38:23;;;;;;;3.80;0.60;;;17.00;99.30;;;;;;5065535;28;20067;-56
2022/09/14 10:41:14;;;;;;;1.98;0.50;;;17.10;99.10;;;;;;5051363;28;20037;-57
2022/09/14 10:44:10;;;;;;;2.92;1.10;;;17.10;99.20;;;;;;5057387;28;20041;-57
2022/09/14 10:46:48;;;;;;;2.20;0.50;;;17.20;99.10;;;;;;5064354;28;20484;-57
2022/09/14 10:49:40;;;;;;;3.28;1.35;;;17.10;99.10;;;;;;5043375;28;20108;-55
2022/09/14 10:52:38;;;;;;;2.28;0.70;;;17.20;99.20;;;;;;5049837;28;20056;-56
2022/09/14 10:55:23;;;;;;;1.13;0.50;;;17.20;99.20;;;;;;5045834;28;20113;-57
2022/09/14 10:58:05;;;;;;;1.77;0.60;;;17.20;99.20;;;;;;5054992;28;20017;-56
2022/09/14 11:00:40;;;;;;;1.55;0.60;;;17.20;99.10;;;;;;5051624;28;20018;-56
2022/09/14 11:03:33;;;;;;;2.17;0.60;;;17.20;99.10;;;;;;5050526;28;20115;-56
2022/09/14 11:06:17;;;;;;;1.63;0.50;;;17.20;99.10;;;;;;5044236;28;20095;-57
2022/09/14 11:09:01;;;;;;;2.83;0.70;;;17.20;99.20;;;;;;5054142;28;20520;-56
2022/09/14 11:11:45;;;;;;;3.78;0.85;;;17.20;99.20;;;;;;5053462;28;20045;-56
2022/09/14 11:14:55;;;;;;;1.15;0.60;;;17.10;99.30;;;;;;5049559;28;20428;-56
2022/09/14 11:17:35;;;;;;;2.42;0.60;;;17.20;99.20;;;;;;5051896;28;20035;-57
2022/09/14 11:20:31;;;;;;;1.38;0.50;;;17.20;99.10;;;;;;5067651;28;20549;-57
2022/09/14 11:23:41;;;;;;;1.67;0.73;;;17.30;99.00;;;;;;5051096;28;20103;-56
2022/09/14 11:26:21;;;;;;;3.75;1.13;;;17.20;98.80;;;;;;4991163;28;20481;-56
2022/09/14 11:28:52;;;;;;;3.00;0.80;;;17.00;98.90;;;;;;5045480;28;20029;-56
2022/09/14 11:31:24;;;;;;;1.40;0.73;;;16.90;99.10;;;;;;5049981;28;20108;-56
2022/09/14 11:34:26;;;;;;;1.92;0.98;;;17.00;99.10;;;;;;5053308;28;20033;-56
2022/09/14 11:37:08;;;;;;;1.25;0.55;;;17.10;98.90;;;;;;5050578;28;20122;-56
2022/09/14 11:39:43;;;;;;;2.65;0.80;;;17.20;98.80;;;;;;5049171;28;20071;-57
2022/09/14 11:42:19;;;;;;;1.08;0.68;;;17.20;98.70;;;;;;5054111;28;20045;-56
2022/09/14 11:44:46;;;;;;;1.88;0.57;;;17.30;98.70;;;;;;5051374;28;20025;-57
2022/09/14 11:47:20;;;;;;;5.38;1.35;;;17.30;98.70;;;;;;5046580;28;20026;-57
2022/09/14 11:50:09;;;;;;;2.35;0.90;;;17.30;98.50;;;;;;5048982;28;20406;-57
2022/09/14 11:52:35;;;;;;;2.97;0.80;;;17.20;98.50;;;;;;5048634;28;20092;-56
2022/09/14 11:55:07;;;;;;;2.55;0.63;;;17.10;98.70;;;;;;5049719;28;20120;-56
2022/09/14 11:57:33;;;;;;;2.05;0.73;;;17.20;98.70;;;;;;5050658;28;20457;-57
2022/09/14 12:00:43;;;;;;;3.25;0.88;;;17.30;98.60;;;;;;5047332;28;20029;-56
2022/09/14 12:03:41;;;;;;;4.40;0.70;;;17.40;98.40;;;;;;5035813;28;20037;-56
2022/09/14 12:06:29;;;;;;;2.77;0.67;;;17.40;98.50;;;;;;5050460;28;20029;-56
2022/09/14 12:09:21;;;;;;;0.95;0.52;;;17.40;98.50;;;;;;5050537;28;20013;-57
2022/09/14 12:11:56;;;;;;;2.67;1.15;;;17.50;98.40;;;;;;5048774;28;20461;-57
2022/09/14 12:14:26;;;;;;;3.80;1.00;;;17.50;98.60;;;;;;5053978;28;20112;-57
2022/09/14 12:17:25;;;;;;;3.15;0.90;;;17.40;98.70;;;;;;5048636;28;20025;-57
2022/09/14 12:19:54;;;;;;;1.98;0.60;;;17.40;98.70;;;;;;5058506;28;20032;-57
2022/09/14 12:22:22;;;;;;;3.38;0.50;;;17.40;98.80;;;;;;5050660;28;20499;-57
2022/09/14 12:25:19;;;;;;;1.67;0.50;;;17.50;98.70;;;;;;5049048;28;20025;-57
2022/09/14 12:27:47;;;;;;;1.77;0.90;;;17.60;98.50;;;;;;5055631;28;20021;-56
2022/09/14 12:30:35;;;;;;;1.75;0.50;;;17.70;98.40;;;;;;5049872;28;20098;-57
2022/09/14 12:33:02;;;;;;;1.88;0.63;;;17.80;98.00;;;;;;5048110;28;20032;-58
2022/09/14 12:35:44;;;;;;;3.50;0.50;;;17.80;98.00;;;;;;5045977;28;20046;-58
2022/09/14 12:38:48;;;;;;;3.10;0.65;;;18.00;97.80;;;;;;5044397;28;20029;-58
2022/09/14 12:41:13;;;;;;;2.63;0.60;;;18.00;97.50;;;;;;4989803;28;20082;-58
2022/09/14 12:43:39;;;;;;;4.25;0.80;;;18.00;97.50;;;;;;5041110;28;20064;-58
2022/09/14 12:46:21;;;;;;;2.47;0.80;;;18.00;97.30;;;;;;5049620;28;20021;-58
2022/09/14 12:51:28;;;;;;;1.50;0.40;;;18.10;97.10;;;;;;5046346;28;20100;-58
2022/09/14 12:54:22;;;;;;;2.00;0.70;;;18.10;97.00;;;;;;5051289;28;20028;-58
2022/09/14 12:57:23;;;;;;;1.83;0.70;;;18.10;97.00;;;;;;5040336;28;20052;-56
2022/09/14 13:00:07;;;;;;;1.45;0.80;;;18.10;96.90;;;;;;5064947;28;20025;-58
2022/09/14 13:02:46;;;;;;;1.42;0.63;;;18.10;96.90;;;;;;5048966;28;20055;-58
2022/09/14 13:05:23;;;;;;;2.03;0.67;;;18.10;96.90;;;;;;5046039;28;20025;-58
2022/09/14 13:07:50;;;;;;;4.55;1.05;;;18.20;96.90;;;;;;5051193;28;20305;-58
2022/09/14 13:10:30;;;;;;;2.60;1.05;;;18.20;96.80;;;;;;5044675;28;20394;-58
2022/09/14 13:12:58;;;;;;;3.65;1.42;;;18.10;96.80;;;;;;5060825;28;20028;-58
2022/09/14 13:15:27;;;;;;;2.90;1.00;;;18.10;97.00;;;;;;5049198;28;20021;-58
2022/09/14 13:18:01;;;;;;;2.15;0.68;;;18.10;97.10;;;;;;5050110;28;20103;-58
2022/09/14 13:20:29;;;;;;;1.70;0.80;;;18.20;97.00;;;;;;5046650;28;20021;-58
2022/09/14 13:22:55;;;;;;;1.80;0.70;;;18.20;97.00;;;;;;5053989;28;20047;-58
2022/09/14 13:25:33;;;;;;;2.85;1.02;;;18.30;97.00;;;;;;5050947;28;20411;-58